createdAt,value
2019-02-20T00:00:21.259Z,21.27
2019-02-20T00:02:53.043Z,21.73
2019-02-20T00:05:23.200Z,30.10
2019-02-20T00:07:54.363Z,18.77
2019-02-20T00:10:24.541Z,25.07
2019-02-20T00:12:54.719Z,18.73
2019-02-20T00:15:24.878Z,21.20
2019-02-20T00:17:55.039Z,19.57
2019-02-20T00:20:25.186Z,22.00
2019-02-20T00:22:55.343Z,29.80
2019-02-20T00:25:25.500Z,23.40
2019-02-20T00:27:55.748Z,23.10
2019-02-20T00:30:25.918Z,20.20
2019-02-20T00:32:56.060Z,19.00
2019-02-20T00:35:26.331Z,23.63
2019-02-20T00:37:56.512Z,20.30
2019-02-20T00:40:26.680Z,20.70
2019-02-20T00:42:56.837Z,19.83
2019-02-20T00:45:44.855Z,26.03
2019-02-20T00:48:33.949Z,21.37
2019-02-20T00:51:11.773Z,24.93
2019-02-20T00:53:49.868Z,19.50
2019-02-20T00:56:20.043Z,17.53
2019-02-20T00:58:50.224Z,24.17
2019-02-20T01:01:20.395Z,25.23
2019-02-20T01:03:50.578Z,26.27
2019-02-20T01:06:20.728Z,23.10
2019-02-20T01:08:50.874Z,20.23
2019-02-20T01:11:21.037Z,29.27
2019-02-20T01:13:51.199Z,31.00
2019-02-20T01:16:23.873Z,20.77
2019-02-20T01:18:54.043Z,20.37
2019-02-20T01:21:24.267Z,27.50
2019-02-20T01:23:54.419Z,26.93
2019-02-20T01:26:24.571Z,21.97
2019-02-20T01:28:54.744Z,18.80
2019-02-20T01:31:24.915Z,28.30
2019-02-20T01:33:55.079Z,23.20
2019-02-20T01:36:25.253Z,19.17
2019-02-20T01:38:59.876Z,25.33
2019-02-20T01:41:31.664Z,33.43
2019-02-20T01:44:01.823Z,23.93
2019-02-20T01:46:32.007Z,21.20
2019-02-20T01:49:02.176Z,31.07
2019-02-20T01:51:32.332Z,33.17
2019-02-20T01:54:02.542Z,20.87
2019-02-20T01:56:32.683Z,31.07
2019-02-20T01:59:02.856Z,24.53
2019-02-20T02:01:33.040Z,24.90
2019-02-20T02:04:03.410Z,33.87
2019-02-20T02:06:33.560Z,23.73
2019-02-20T02:09:05.175Z,15.90
2019-02-20T02:11:36.092Z,21.60
2019-02-20T02:14:06.392Z,20.83
2019-02-20T02:16:36.556Z,25.60
2019-02-20T02:19:06.688Z,28.23
2019-02-20T02:21:36.868Z,19.30
2019-02-20T02:24:10.164Z,21.13
2019-02-20T02:26:41.972Z,25.03
2019-02-20T02:29:12.131Z,24.97
2019-02-20T02:31:42.374Z,28.67
2019-02-20T02:34:12.603Z,26.53
2019-02-20T02:36:42.773Z,29.77
2019-02-20T02:39:13.895Z,20.80
2019-02-20T02:41:44.851Z,25.70
2019-02-20T02:44:15.175Z,26.73
2019-02-20T02:46:45.343Z,20.37
2019-02-20T02:49:15.483Z,33.97
2019-02-20T02:51:45.666Z,28.77
2019-02-20T02:54:16.652Z,25.80
2019-02-20T02:56:46.865Z,30.13
2019-02-20T02:59:17.086Z,25.50
2019-02-20T03:01:47.363Z,18.90
2019-02-20T03:04:17.598Z,30.97
2019-02-20T03:06:47.783Z,30.70
2019-02-20T03:09:17.943Z,21.63
2019-02-20T03:11:48.087Z,22.37
2019-02-20T03:14:18.252Z,23.57
2019-02-20T03:16:48.415Z,25.13
2019-02-20T03:19:19.446Z,16.83
2019-02-20T03:21:49.587Z,18.53
2019-02-20T03:24:19.753Z,20.50
2019-02-20T03:26:49.885Z,24.03
2019-02-20T03:29:20.056Z,23.17
2019-02-20T03:31:50.197Z,24.43
2019-02-20T03:34:20.336Z,18.17
2019-02-20T03:36:50.523Z,23.50
2019-02-20T03:39:20.680Z,29.40
2019-02-20T03:41:50.840Z,29.43
2019-02-20T03:44:20.989Z,20.90
2019-02-20T03:46:51.154Z,26.77
2019-02-20T03:49:21.300Z,28.00
2019-02-20T03:51:51.518Z,17.37
2019-02-20T03:54:21.691Z,28.33
2019-02-20T03:56:51.866Z,23.37
2019-02-20T03:59:22.097Z,20.70
2019-02-20T04:01:52.270Z,25.70
2019-02-20T04:04:22.472Z,18.73
2019-02-20T04:06:52.639Z,19.90
2019-02-20T04:09:22.816Z,23.57
2019-02-20T04:11:52.968Z,25.17
2019-02-20T04:14:23.139Z,20.80
2019-02-20T04:16:53.334Z,22.63
2019-02-20T04:19:23.532Z,19.20
2019-02-20T04:21:53.705Z,16.43
2019-02-20T04:24:23.872Z,21.97
2019-02-20T04:26:54.040Z,22.23
2019-02-20T04:29:24.236Z,22.77
2019-02-20T04:31:54.441Z,25.37
2019-02-20T04:34:24.656Z,23.70
2019-02-20T04:36:55.800Z,26.37
2019-02-20T04:39:25.965Z,26.47
2019-02-20T04:41:56.138Z,28.43
2019-02-20T04:44:26.291Z,22.40
2019-02-20T04:46:56.467Z,15.90
2019-02-20T04:49:26.602Z,26.60
2019-02-20T04:51:56.755Z,19.40
2019-02-20T04:54:27.021Z,25.00
2019-02-20T04:56:57.159Z,25.40
2019-02-20T04:59:27.338Z,28.47
2019-02-20T05:01:57.493Z,23.33
2019-02-20T05:04:27.698Z,28.03
2019-02-20T05:06:57.918Z,23.80
2019-02-20T05:09:28.135Z,29.33
2019-02-20T05:11:58.287Z,27.93
2019-02-20T05:14:28.456Z,25.37
2019-02-20T05:16:58.691Z,25.97
2019-02-20T05:19:31.437Z,23.80
2019-02-20T05:22:01.581Z,21.60
2019-02-20T05:24:31.842Z,21.87
2019-02-20T05:27:01.991Z,26.27
2019-02-20T05:29:32.175Z,25.23
2019-02-20T05:32:05.213Z,27.13
2019-02-20T05:34:35.351Z,30.27
2019-02-20T05:37:05.556Z,29.03
2019-02-20T05:39:35.777Z,37.03
2019-02-20T05:42:05.976Z,24.63
2019-02-20T05:44:36.936Z,25.87
2019-02-20T05:47:07.183Z,31.27
2019-02-20T05:49:37.326Z,23.83
2019-02-20T05:52:07.602Z,26.63
2019-02-20T05:54:37.744Z,28.07
2019-02-20T05:57:07.911Z,26.23
2019-02-20T05:59:38.104Z,26.63
2019-02-20T06:02:08.286Z,32.67
2019-02-20T06:04:38.449Z,30.00
2019-02-20T06:07:08.948Z,27.47
2019-02-20T06:09:40.121Z,27.80
2019-02-20T06:12:10.282Z,26.07
2019-02-20T06:14:40.476Z,24.63
2019-02-20T06:17:10.634Z,34.40
2019-02-20T06:19:40.795Z,25.97
2019-02-20T06:22:10.983Z,38.10
2019-02-20T06:24:44.040Z,33.53
2019-02-20T06:27:13.084Z,24.13
2019-02-20T06:29:43.286Z,31.73
2019-02-20T06:32:13.456Z,26.20
2019-02-20T06:34:43.634Z,33.00
2019-02-20T06:37:13.768Z,28.03
2019-02-20T06:39:43.937Z,39.07
2019-02-20T06:42:14.109Z,30.20
2019-02-20T06:44:44.263Z,27.97
2019-02-20T06:47:14.443Z,26.60
2019-02-20T06:49:44.747Z,28.73
2019-02-20T06:52:15.911Z,27.83
2019-02-20T06:54:53.551Z,30.90
2019-02-20T06:57:17.983Z,35.10
2019-02-20T06:59:48.167Z,30.03
2019-02-20T07:02:18.371Z,31.33
2019-02-20T07:05:30.265Z,36.33
2019-02-20T07:08:48.941Z,30.30
2019-02-20T07:12:18.129Z,36.97
2019-02-20T07:15:26.511Z,33.30
2019-02-20T07:18:29.575Z,34.30
2019-02-20T07:21:46.824Z,42.43
2019-02-20T07:25:03.843Z,38.40
2019-02-20T07:28:10.751Z,29.10
2019-02-20T07:30:40.922Z,31.90
2019-02-20T07:33:11.095Z,30.13
2019-02-20T07:35:41.324Z,41.90
2019-02-20T07:38:12.445Z,34.90
2019-02-20T07:40:42.613Z,31.10
2019-02-20T07:43:12.771Z,37.17
2019-02-20T07:45:42.974Z,33.00
2019-02-20T07:48:13.155Z,33.50
2019-02-20T07:50:43.335Z,28.43
2019-02-20T07:53:13.487Z,37.73
2019-02-20T07:55:43.670Z,30.27
2019-02-20T07:58:13.836Z,29.50
2019-02-20T08:00:44.027Z,35.80
2019-02-20T08:03:14.180Z,36.53
2019-02-20T08:05:44.375Z,33.80
2019-02-20T08:08:15.510Z,25.63
2019-02-20T08:10:45.701Z,33.73
2019-02-20T08:13:16.844Z,35.40
2019-02-20T08:15:47.029Z,31.40
2019-02-20T08:18:17.205Z,37.47
2019-02-20T08:20:47.572Z,33.60
2019-02-20T08:23:17.780Z,37.37
2019-02-20T08:25:48.035Z,32.83
2019-02-20T08:28:18.179Z,33.57
2019-02-20T08:30:49.322Z,29.83
2019-02-20T08:33:19.501Z,32.53
2019-02-20T08:35:49.693Z,32.27
2019-02-20T08:38:19.856Z,30.10
2019-02-20T08:40:50.034Z,32.73
2019-02-20T08:43:20.239Z,35.50
2019-02-20T08:45:51.355Z,30.00
2019-02-20T08:48:21.564Z,32.13
2019-02-20T08:50:51.696Z,33.67
2019-02-20T08:53:21.846Z,32.23
2019-02-20T08:55:52.003Z,31.77
2019-02-20T08:58:22.239Z,41.07
2019-02-20T09:00:52.467Z,34.30
2019-02-20T09:03:22.623Z,43.50
2019-02-20T09:05:52.837Z,29.07
2019-02-20T09:08:23.008Z,41.93
2019-02-20T09:10:53.186Z,42.80
2019-02-20T09:13:23.358Z,41.20
2019-02-20T09:15:53.523Z,42.80
2019-02-20T09:18:23.712Z,37.87
2019-02-20T09:20:53.916Z,44.00
2019-02-20T09:23:24.148Z,42.03
2019-02-20T09:25:54.307Z,39.40
2019-02-20T09:28:24.488Z,41.93
2019-02-20T09:30:54.672Z,43.00
2019-02-20T09:33:24.840Z,39.70
2019-02-20T09:35:56.240Z,39.63
2019-02-20T09:38:27.388Z,36.57
2019-02-20T09:40:57.545Z,39.03
2019-02-20T09:43:27.728Z,43.47
2019-02-20T09:45:57.907Z,49.00
2019-02-20T09:48:29.146Z,45.50
2019-02-20T09:50:59.328Z,42.07
2019-02-20T09:53:29.561Z,47.67
2019-02-20T09:55:59.745Z,32.47
2019-02-20T09:58:30.005Z,33.87
2019-02-20T10:01:00.186Z,39.23
2019-02-20T10:03:30.356Z,36.07
2019-02-20T10:06:00.540Z,33.57
2019-02-20T10:08:30.694Z,32.10
2019-02-20T10:11:00.857Z,38.00
2019-02-20T10:13:31.002Z,38.73
2019-02-20T10:16:01.171Z,41.63
2019-02-20T10:18:31.367Z,36.27
2019-02-20T10:21:01.613Z,35.17
2019-02-20T10:23:31.791Z,33.30
2019-02-20T10:26:01.965Z,37.43
2019-02-20T10:28:32.135Z,29.93
2019-02-20T10:31:02.332Z,35.60
2019-02-20T10:33:32.584Z,38.23
2019-02-20T10:36:02.744Z,33.80
2019-02-20T10:38:33.944Z,27.43
2019-02-20T10:41:04.129Z,32.80
2019-02-20T10:43:35.272Z,33.67
2019-02-20T10:46:05.524Z,28.33
2019-02-20T10:48:35.773Z,35.27
2019-02-20T10:51:05.987Z,31.63
2019-02-20T10:53:36.159Z,32.17
2019-02-20T10:56:09.313Z,33.10
2019-02-20T10:58:38.383Z,28.70
2019-02-20T11:01:08.563Z,28.67
2019-02-20T11:03:38.669Z,27.87
2019-02-20T11:06:08.824Z,30.07
2019-02-20T11:08:39.002Z,25.97
2019-02-20T11:11:09.188Z,27.17
2019-02-20T11:13:39.345Z,26.80
2019-02-20T11:16:09.506Z,29.17
2019-02-20T11:18:39.663Z,26.00
2019-02-20T11:21:09.857Z,27.13
2019-02-20T11:23:40.069Z,27.53
2019-02-20T11:26:17.977Z,24.60
2019-02-20T11:28:42.116Z,23.60
2019-02-20T11:31:12.286Z,22.43
2019-02-20T11:33:42.479Z,24.67
2019-02-20T11:36:12.641Z,28.07
2019-02-20T11:38:42.827Z,24.30
2019-02-20T11:41:13.522Z,21.37
2019-02-20T11:43:43.757Z,22.83
2019-02-20T11:46:13.928Z,25.83
2019-02-20T11:48:44.110Z,21.70
2019-02-20T11:51:14.272Z,20.50
2019-02-20T11:53:46.093Z,19.93
2019-02-20T11:56:17.404Z,23.10
2019-02-20T11:58:47.620Z,19.13
2019-02-20T12:01:17.796Z,17.97
2019-02-20T12:03:47.995Z,20.27
2019-02-20T12:06:18.188Z,18.40
2019-02-20T12:08:48.432Z,22.17
2019-02-20T12:11:19.508Z,16.20
2019-02-20T12:13:49.699Z,24.73
2019-02-20T12:16:19.871Z,22.47
2019-02-20T12:18:50.039Z,19.93
2019-02-20T12:21:20.207Z,16.63
2019-02-20T12:23:51.342Z,14.80
2019-02-20T12:26:24.035Z,25.47
2019-02-20T12:28:54.350Z,14.67
2019-02-20T12:31:24.570Z,17.30
2019-02-20T12:33:54.733Z,24.23
2019-02-20T12:36:24.939Z,14.97
2019-02-20T12:38:55.108Z,18.87
2019-02-20T12:41:25.256Z,17.20
2019-02-20T12:43:55.428Z,13.60
2019-02-20T12:46:25.563Z,13.00
2019-02-20T12:48:55.777Z,13.50
2019-02-20T12:51:25.935Z,14.57
2019-02-20T12:53:56.109Z,12.77
2019-02-20T12:56:26.280Z,12.13
2019-02-20T12:58:56.466Z,11.33
2019-02-20T13:01:26.622Z,12.60
2019-02-20T13:03:56.788Z,11.93
2019-02-20T13:06:26.976Z,13.70
2019-02-20T13:08:57.147Z,12.23
2019-02-20T13:11:27.292Z,18.27
2019-02-20T13:13:57.470Z,8.77
2019-02-20T13:16:27.628Z,10.93
2019-02-20T13:18:57.783Z,13.03
2019-02-20T13:21:27.960Z,20.53
2019-02-20T13:23:58.159Z,10.57
2019-02-20T13:26:28.338Z,13.93
2019-02-20T13:28:58.500Z,11.13
2019-02-20T13:31:28.659Z,15.23
2019-02-20T13:33:58.847Z,15.00
2019-02-20T13:36:29.031Z,13.70
2019-02-20T13:38:59.263Z,10.17
2019-02-20T13:41:29.491Z,12.30
2019-02-20T13:43:59.723Z,11.70
2019-02-20T13:46:29.923Z,11.83
2019-02-20T13:49:00.287Z,12.40
2019-02-20T13:51:31.691Z,11.63
2019-02-20T13:54:01.844Z,17.67
2019-02-20T13:56:32.083Z,16.93
2019-02-20T13:59:02.336Z,11.17
2019-02-20T14:01:32.611Z,10.93
2019-02-20T14:04:02.796Z,14.63
2019-02-20T14:06:33.283Z,13.57
2019-02-20T14:09:12.068Z,18.80
2019-02-20T14:11:43.826Z,13.47
2019-02-20T14:14:14.124Z,15.07
2019-02-20T14:16:44.294Z,18.30
2019-02-20T14:19:14.755Z,16.10
2019-02-20T14:21:44.933Z,15.77
2019-02-20T14:24:15.204Z,14.37
2019-02-20T14:26:45.389Z,13.03
2019-02-20T14:29:15.593Z,17.73
2019-02-20T14:31:45.776Z,16.47
2019-02-20T14:34:16.231Z,27.10
2019-02-20T14:36:46.453Z,15.07
2019-02-20T14:39:17.679Z,13.70
2019-02-20T14:41:47.974Z,16.63
2019-02-20T14:44:18.168Z,13.13
2019-02-20T14:46:48.376Z,11.80
2019-02-20T14:49:18.556Z,13.23
2019-02-20T14:51:48.791Z,15.70
2019-02-20T14:54:19.075Z,17.00
2019-02-20T14:56:49.325Z,15.60
2019-02-20T14:59:19.504Z,11.63
2019-02-20T15:01:49.987Z,8.93
2019-02-20T15:04:20.240Z,18.93
2019-02-20T15:06:50.397Z,12.67
2019-02-20T15:09:20.746Z,13.60
2019-02-20T15:11:51.000Z,15.40
2019-02-20T15:14:21.219Z,13.97
2019-02-20T15:16:51.779Z,11.43
2019-02-20T15:19:23.024Z,11.20
2019-02-20T15:21:53.308Z,11.03
2019-02-20T15:24:23.568Z,10.30
2019-02-20T15:26:53.796Z,12.13
2019-02-20T15:29:24.110Z,14.30
2019-02-20T15:31:54.375Z,15.03
2019-02-20T15:34:24.553Z,12.47
2019-02-20T15:36:54.755Z,11.63
2019-02-20T15:39:24.923Z,13.50
2019-02-20T15:41:55.228Z,18.47
2019-02-20T15:44:25.504Z,15.23
2019-02-20T15:46:55.734Z,15.30
2019-02-20T15:49:26.048Z,12.33
2019-02-20T15:51:56.315Z,12.27
2019-02-20T15:54:26.554Z,15.83
2019-02-20T15:56:56.823Z,17.30
2019-02-20T15:59:27.067Z,16.10
2019-02-20T16:01:57.307Z,15.37
2019-02-20T16:04:27.500Z,14.87
2019-02-20T16:06:57.691Z,16.90
2019-02-20T16:09:27.848Z,14.60
2019-02-20T16:11:58.052Z,16.00
2019-02-20T16:14:28.591Z,15.33
2019-02-20T16:16:58.848Z,13.57
2019-02-20T16:19:29.026Z,19.73
2019-02-20T16:21:59.214Z,15.20
2019-02-20T16:24:29.406Z,18.07
2019-02-20T16:26:59.580Z,17.10
2019-02-20T16:29:30.131Z,17.57
2019-02-20T16:32:00.384Z,19.17
2019-02-20T16:34:30.593Z,14.70
2019-02-20T16:37:01.823Z,14.63
2019-02-20T16:39:32.088Z,21.50
2019-02-20T16:42:02.271Z,16.03
2019-02-20T16:44:32.463Z,18.87
2019-02-20T16:47:02.685Z,22.40
2019-02-20T16:49:32.880Z,17.10
2019-02-20T16:52:03.038Z,15.60
2019-02-20T16:54:33.280Z,17.77
2019-02-20T16:57:03.498Z,17.97
2019-02-20T16:59:33.801Z,20.23
2019-02-20T17:02:04.134Z,18.97
2019-02-20T17:04:34.315Z,16.77
2019-02-20T17:07:04.671Z,15.07
2019-02-20T17:09:34.862Z,16.30
2019-02-20T17:12:05.443Z,22.73
2019-02-20T17:14:36.599Z,16.70
2019-02-20T17:17:06.975Z,22.50
2019-02-20T17:19:37.170Z,15.10
2019-02-20T17:22:07.453Z,17.37
2019-02-20T17:24:37.600Z,16.47
2019-02-20T17:27:07.962Z,25.80
2019-02-20T17:29:38.152Z,17.47
2019-02-20T17:32:08.338Z,17.03
2019-02-20T17:34:38.508Z,21.47
2019-02-20T17:37:08.993Z,16.67
2019-02-20T17:39:39.233Z,19.10
2019-02-20T17:42:09.449Z,17.97
2019-02-20T17:44:39.649Z,19.50
2019-02-20T17:47:09.892Z,17.13
2019-02-20T17:49:40.055Z,23.33
2019-02-20T17:52:10.280Z,18.57
2019-02-20T17:54:40.763Z,21.40
2019-02-20T17:57:11.334Z,23.60
2019-02-20T17:59:41.664Z,18.57
2019-02-20T18:02:11.892Z,24.43
2019-02-20T18:04:42.192Z,25.30
2019-02-20T18:07:12.395Z,21.00
2019-02-20T18:09:42.643Z,21.30
2019-02-20T18:12:12.823Z,24.50
2019-02-20T18:14:43.116Z,20.90
2019-02-20T18:17:13.301Z,32.67
2019-02-20T18:19:43.596Z,25.13
2019-02-20T18:22:13.809Z,24.27
2019-02-20T18:24:44.047Z,22.30
2019-02-20T18:27:14.255Z,24.37
2019-02-20T18:29:44.496Z,26.63
2019-02-20T18:32:14.675Z,23.40
2019-02-20T18:34:44.873Z,24.07
2019-02-20T18:37:15.055Z,24.60
2019-02-20T18:39:45.312Z,21.80
2019-02-20T18:42:15.577Z,23.07
2019-02-20T18:44:45.796Z,22.90
2019-02-20T18:47:16.046Z,21.07
2019-02-20T18:49:46.273Z,21.30
2019-02-20T18:52:16.490Z,21.17
2019-02-20T18:54:46.683Z,21.07
2019-02-20T18:57:17.027Z,19.93
2019-02-20T18:59:47.283Z,23.60
2019-02-20T19:02:17.465Z,21.70
2019-02-20T19:04:47.733Z,20.37
2019-02-20T19:07:18.091Z,21.90
2019-02-20T19:09:49.770Z,24.83
2019-02-20T19:12:42.820Z,21.97
2019-02-20T19:15:45.151Z,25.20
2019-02-20T19:18:41.756Z,24.07
2019-02-20T19:21:28.296Z,22.77
2019-02-20T19:24:30.132Z,22.60
2019-02-20T19:27:16.316Z,20.73
2019-02-20T19:30:36.556Z,21.93
2019-02-20T19:33:20.637Z,28.07
2019-02-20T19:36:34.944Z,27.33
2019-02-20T19:39:38.416Z,20.93
2019-02-20T19:42:46.860Z,22.03
2019-02-20T19:46:00.263Z,33.63
2019-02-20T19:49:05.235Z,28.30
2019-02-20T19:52:02.795Z,26.93
2019-02-20T19:54:43.692Z,23.43
2019-02-20T19:57:42.515Z,26.70
2019-02-20T20:00:38.505Z,25.57
2019-02-20T20:03:56.242Z,27.17
2019-02-20T20:06:52.514Z,21.80
2019-02-20T20:10:06.764Z,22.50
2019-02-20T20:13:08.904Z,23.27
2019-02-20T20:16:17.588Z,20.40
2019-02-20T20:19:16.417Z,31.07
2019-02-20T20:22:09.864Z,26.00
2019-02-20T20:25:20.362Z,26.77
2019-02-20T20:28:17.634Z,30.53
2019-02-20T20:31:49.995Z,30.77
2019-02-20T20:34:57.298Z,22.67
2019-02-20T20:37:40.446Z,26.37
2019-02-20T20:40:41.993Z,24.93
2019-02-20T20:43:42.566Z,26.47
2019-02-20T20:46:45.362Z,29.53
2019-02-20T20:49:45.304Z,26.40
2019-02-20T20:52:55.198Z,27.33
2019-02-20T20:56:20.340Z,27.10
2019-02-20T20:59:42.353Z,23.90
2019-02-20T21:02:22.341Z,28.13
2019-02-20T21:05:13.269Z,25.27
2019-02-20T21:07:50.946Z,31.13
2019-02-20T21:11:07.171Z,30.17
2019-02-20T21:13:58.892Z,28.80
2019-02-20T21:17:40.000Z,29.70
2019-02-20T21:20:39.736Z,31.77
2019-02-20T21:23:49.384Z,29.00
2019-02-20T21:26:49.092Z,25.37
2019-02-20T21:30:13.558Z,25.00
2019-02-20T21:33:15.740Z,25.23
2019-02-20T21:36:37.168Z,24.67
2019-02-20T21:39:32.610Z,27.47
2019-02-20T21:42:33.543Z,34.03
2019-02-20T21:45:34.932Z,23.47
2019-02-20T21:48:44.540Z,29.33
2019-02-20T21:51:47.048Z,33.13
2019-02-20T21:54:56.115Z,24.17
2019-02-20T21:57:52.149Z,25.40
2019-02-20T22:00:59.147Z,30.53
2019-02-20T22:04:15.424Z,37.40
2019-02-20T22:07:15.124Z,30.73
2019-02-20T22:10:16.357Z,24.00
2019-02-20T22:13:03.143Z,28.30
2019-02-20T22:15:53.026Z,26.50
2019-02-20T22:19:04.283Z,32.07
2019-02-20T22:21:59.750Z,29.33
2019-02-20T22:24:53.854Z,28.40
2019-02-20T22:27:37.067Z,28.73
2019-02-20T22:30:34.592Z,29.80
2019-02-20T22:33:22.020Z,29.93
2019-02-20T22:36:19.795Z,27.83
2019-02-20T22:39:45.624Z,27.73
2019-02-20T22:42:29.195Z,30.40
2019-02-20T22:45:33.476Z,35.37
2019-02-20T22:48:16.653Z,35.73
2019-02-20T22:50:57.055Z,28.33
2019-02-20T22:54:22.980Z,31.30
2019-02-20T22:57:30.097Z,29.63
2019-02-20T23:00:48.609Z,27.57
2019-02-20T23:03:30.655Z,32.40
2019-02-20T23:06:20.890Z,31.27
2019-02-20T23:09:52.608Z,29.47
2019-02-20T23:12:52.439Z,34.57
2019-02-20T23:15:22.684Z,36.73
2019-02-20T23:17:52.847Z,32.37
2019-02-20T23:20:23.053Z,31.77
2019-02-20T23:22:53.236Z,33.07
2019-02-20T23:25:23.385Z,35.80
2019-02-20T23:27:53.548Z,31.20
2019-02-20T23:30:23.724Z,30.00
2019-02-20T23:32:53.886Z,33.90
2019-02-20T23:35:24.064Z,35.07
2019-02-20T23:37:54.230Z,35.80
2019-02-20T23:40:24.433Z,31.93
2019-02-20T23:42:54.644Z,36.43
2019-02-20T23:45:24.805Z,35.40
2019-02-20T23:47:54.970Z,36.03
2019-02-20T23:50:25.152Z,33.80
2019-02-20T23:52:55.351Z,39.57
2019-02-20T23:55:25.547Z,36.30
2019-02-20T23:57:55.735Z,33.40
